Time;durP1;ratioP1;P1;durP2;ratioP2;P2;SDS_P1;SDS_P2;PMS_P1;PMS_P2;Temp;Humidity;BMP_temperature;BMP_pressure;BME280_temperature;BME280_humidity;BME280_pressure;Samples;Min_cycle;Max_cycle;Signal;HPM_P1;HPM_P2
2022/03/17 00:00:16;;;;;;;76.02;49.90;;;;;;;5.41;76.49;101541.45;2586797;92;21132;-73
2022/03/17 00:04:21;;;;;;;76.62;53.20;;;;;;;5.32;77.16;101547.55;2623254;90;21046;-72
2022/03/17 00:08:23;;;;;;;64.82;44.53;;;;;;;5.14;78.08;101549.52;2580719;92;21066;-72
2022/03/17 00:12:26;;;;;;;104.83;68.97;;;;;;;4.92;77.59;101548.18;2622812;90;21030;-72
2022/03/17 00:16:28;;;;;;;114.12;72.40;;;;;;;4.85;79.16;101541.40;2587105;92;21594;-73
2022/03/17 00:20:30;;;;;;;123.45;76.40;;;;;;;4.81;80.33;101538.48;2623106;90;21108;-72
2022/03/17 00:24:32;;;;;;;102.78;71.42;;;;;;;4.75;81.19;101544.84;2581246;92;21086;-72
2022/03/17 00:28:34;;;;;;;116.80;69.07;;;;;;;4.66;81.37;101561.85;2623066;90;21066;-73
2022/03/17 00:32:35;;;;;;;103.95;69.07;;;;;;;4.56;80.01;101573.19;2580457;92;21152;-73
2022/03/17 00:36:37;;;;;;;113.55;74.92;;;;;;;4.36;80.59;101568.64;2622993;90;21109;-70
2022/03/17 00:40:41;;;;;;;109.00;63.35;;;;;;;4.34;80.75;101566.52;2586970;92;21092;-71
2022/03/17 00:44:43;;;;;;;100.90;62.35;;;;;;;4.32;80.22;101561.73;2623100;90;21129;-72
2022/03/17 00:48:44;;;;;;;122.85;82.67;;;;;;;4.34;80.00;101557.30;2587474;92;21136;-71
2022/03/17 00:52:46;;;;;;;135.20;84.35;;;;;;;4.30;81.88;101525.37;2624753;90;21072;-73
2022/03/17 00:56:47;;;;;;;140.57;83.78;;;;;;;4.26;84.58;101510.16;2636812;90;21076;-71
2022/03/17 01:00:49;;;;;;;117.42;77.00;;;;;;;4.23;84.31;101514.66;2636589;90;21083;-70
2022/03/17 01:04:50;;;;;;;115.77;74.15;;;;;;;4.20;83.21;101521.36;2637128;90;21087;-73
2022/03/17 01:08:52;;;;;;;131.93;86.32;;;;;;;4.18;82.43;101517.92;2637183;90;21119;-73
2022/03/17 01:12:53;;;;;;;123.85;78.70;;;;;;;4.11;81.66;101520.75;2636621;90;21695;-72
2022/03/17 01:16:55;;;;;;;116.35;72.97;;;;;;;4.10;81.19;101508.50;2636540;90;21100;-73
2022/03/17 01:20:57;;;;;;;118.33;81.60;;;;;;;4.06;81.66;101504.26;2636237;90;21068;-72
2022/03/17 01:24:59;;;;;;;132.57;84.20;;;;;;;3.99;81.23;101515.45;2636517;90;21091;-72
2022/03/17 01:29:00;;;;;;;124.00;79.45;;;;;;;4.01;81.07;101522.00;2637316;90;21123;-73
2022/03/17 01:33:03;;;;;;;101.38;68.17;;;;;;;4.03;80.48;101524.13;2636782;90;21128;-72
2022/03/17 01:37:05;;;;;;;121.62;75.67;;;;;;;3.94;79.18;101517.40;2636657;90;21152;-73
2022/03/17 01:41:07;;;;;;;117.05;76.97;;;;;;;3.84;79.36;101514.22;2636902;90;22358;-73
2022/03/17 01:45:10;;;;;;;110.60;72.97;;;;;;;3.82;79.38;101515.17;2636898;90;21053;-72
2022/03/17 01:49:11;;;;;;;112.15;74.05;;;;;;;3.83;79.49;101510.31;2636685;88;21063;-73
2022/03/17 01:53:13;;;;;;;124.92;84.45;;;;;;;3.71;78.71;101511.59;2632186;89;21104;-72
2022/03/17 01:57:15;;;;;;;120.40;76.60;;;;;;;3.70;79.17;101511.18;2611293;91;21136;-72
2022/03/17 02:01:16;;;;;;;118.25;77.80;;;;;;;3.72;78.79;101509.36;2611544;90;21873;-73
2022/03/17 02:05:20;;;;;;;107.52;66.82;;;;;;;3.66;78.61;101503.87;2600623;91;21081;-73
2022/03/17 02:09:26;;;;;;;100.47;62.35;;;;;;;3.62;78.10;101502.70;2600821;91;21085;-72
2022/03/17 02:13:25;;;;;;;110.48;64.67;;;;;;;3.61;78.41;101500.98;2600925;91;21133;-72
2022/03/17 02:17:31;;;;;;;109.40;69.60;;;;;;;3.60;78.50;101509.31;2600781;91;21046;-70
2022/03/17 02:21:34;;;;;;;100.18;62.73;;;;;;;3.61;78.80;101507.09;2600125;90;21073;-73
2022/03/17 02:25:36;;;;;;;104.25;66.62;;;;;;;3.60;78.25;101500.58;2600519;91;21066;-71
2022/03/17 02:29:38;;;;;;;136.25;87.97;;;;;;;3.59;78.99;101493.59;2600224;91;21145;-72
2022/03/17 02:33:42;;;;;;;138.75;86.80;;;;;;;3.63;80.38;101488.63;2596287;90;21113;-72
2022/03/17 02:37:43;;;;;;;141.20;85.45;;;;;;;3.66;83.19;101491.15;2595994;91;21648;-72
2022/03/17 02:41:46;;;;;;;127.25;77.37;;;;;;;3.74;83.79;101486.95;2596488;91;21616;-72
2022/03/17 02:45:48;;;;;;;112.20;73.60;;;;;;;3.79;81.84;101496.41;2554572;93;21084;-73
2022/03/17 02:49:50;;;;;;;117.30;72.12;;;;;;;3.80;79.73;101502.08;2585180;92;21122;-72
2022/03/17 02:53:51;;;;;;;120.65;77.25;;;;;;;3.78;79.46;101496.45;2593918;90;21125;-72
2022/03/17 02:57:52;;;;;;;133.75;84.10;;;;;;;3.66;79.08;101489.84;2585631;92;21045;-72
2022/03/17 03:01:54;;;;;;;135.60;85.92;;;;;;;3.59;80.10;101490.97;2544220;93;21167;-72
2022/03/17 03:05:55;;;;;;;136.68;88.52;;;;;;;3.53;82.60;101492.86;2561065;92;21063;-73
2022/03/17 03:09:57;;;;;;;119.42;80.30;;;;;;;3.55;83.11;101498.96;2585439;92;21638;-72
2022/03/17 03:13:59;;;;;;;133.18;81.15;;;;;;;3.27;82.73;101498.52;2544454;93;21629;-72
2022/03/17 03:18:01;;;;;;;117.33;71.50;;;;;;;3.09;83.42;101500.41;2560606;92;21024;-72
2022/03/17 03:22:03;;;;;;;109.70;69.35;;;;;;;2.93;82.95;101503.50;2585795;92;21022;-73
2022/03/17 03:26:05;;;;;;;116.80;75.17;;;;;;;2.77;83.69;101515.41;2544431;93;21138;-71
2022/03/17 03:30:11;;;;;;;100.72;68.37;;;;;;;2.54;84.52;101516.91;2560971;93;21098;-72
2022/03/17 03:34:13;;;;;;;120.55;76.97;;;;;;;2.49;86.05;101525.37;2585642;92;21096;-72
2022/03/17 03:38:14;;;;;;;115.97;72.03;;;;;;;2.54;86.84;101530.05;2544230;93;21512;-73
2022/03/17 03:42:17;;;;;;;126.22;79.72;;;;;;;2.50;86.83;101545.48;2560596;93;21147;-72
2022/03/17 03:46:18;;;;;;;123.00;88.00;;;;;;;2.46;86.59;101547.36;2594710;89;21397;-73
2022/03/17 03:50:20;;;;;;;118.40;79.42;;;;;;;2.55;87.19;101545.78;2624077;90;21594;-72
2022/03/17 03:54:22;;;;;;;126.55;82.02;;;;;;;2.68;86.91;101548.91;2624095;89;21603;-73
2022/03/17 03:58:23;;;;;;;134.80;86.80;;;;;;;2.73;86.93;101544.84;2633080;89;21094;-68
2022/03/17 04:02:25;;;;;;;135.60;89.03;;;;;;;2.76;87.33;101540.81;2622669;89;21462;-68
2022/03/17 04:06:27;;;;;;;118.67;82.40;;;;;;;2.79;87.79;101540.72;2652538;89;21066;-69
2022/03/17 04:10:29;;;;;;;117.40;79.17;;;;;;;2.85;87.74;101536.62;2652648;89;21757;-69
2022/03/17 04:14:31;;;;;;;120.67;80.53;;;;;;;2.85;87.14;101535.74;2652661;89;21505;-69
2022/03/17 04:18:33;;;;;;;128.97;78.75;;;;;;;2.82;85.90;101541.09;2652712;89;21055;-69
2022/03/17 04:22:35;;;;;;;114.35;76.15;;;;;;;2.88;86.58;101543.53;2653615;89;21428;-70
2022/03/17 04:26:37;;;;;;;127.65;80.32;;;;;;;2.97;86.14;101559.48;2653648;89;21130;-70
2022/03/17 04:30:39;;;;;;;120.75;79.12;;;;;;;3.03;86.20;101565.02;2653602;89;21615;-68
2022/03/17 04:34:41;;;;;;;116.67;78.45;;;;;;;2.50;81.59;101588.39;2653153;89;21054;-69
2022/03/17 04:38:43;;;;;;;118.02;82.47;;;;;;;2.04;85.32;101590.89;2653590;89;21074;-70
2022/03/17 04:42:45;;;;;;;133.05;81.57;;;;;;;1.89;85.73;101595.64;2653442;89;21118;-69
2022/03/17 04:46:47;;;;;;;131.97;85.30;;;;;;;1.98;86.48;101597.18;2653484;89;21126;-70
2022/03/17 04:50:49;;;;;;;132.47;91.80;;;;;;;2.13;87.08;101603.33;2653469;89;21082;-70
2022/03/17 04:54:50;;;;;;;121.02;81.63;;;;;;;2.32;87.25;101610.73;2661039;89;21111;-69
2022/03/17 04:58:52;;;;;;;115.95;82.60;;;;;;;2.51;86.41;101608.94;2675939;87;21050;-71
2022/03/17 05:02:54;;;;;;;132.30;90.30;;;;;;;2.60;85.78;101615.27;2675984;89;21050;-71
2022/03/17 05:06:55;;;;;;;126.18;74.25;;;;;;;2.64;86.19;101618.66;2675235;88;21113;-68
2022/03/17 05:10:57;;;;;;;108.95;76.07;;;;;;;2.55;86.87;101618.45;2676026;88;21668;-71
2022/03/17 05:14:58;;;;;;;113.25;73.85;;;;;;;2.35;87.19;101618.53;2676345;89;21054;-72
2022/03/17 05:19:00;;;;;;;108.30;72.32;;;;;;;2.35;87.25;101617.69;2676562;89;21066;-70
2022/03/17 05:23:10;;;;;;;116.55;76.12;;;;;;;2.05;89.41;101611.86;2676071;89;21089;-72
2022/03/17 05:27:12;;;;;;;117.62;76.40;;;;;;;2.05;89.40;101619.73;2676304;88;21042;-73
2022/03/17 05:31:13;;;;;;;111.52;77.05;;;;;;;2.33;89.44;101620.80;2676354;87;21042;-73
2022/03/17 05:35:16;;;;;;;120.47;77.35;;;;;;;2.69;89.67;101622.89;2676566;87;21046;-73
2022/03/17 05:39:17;;;;;;;134.47;81.78;;;;;;;3.13;89.32;101633.06;2676512;89;21666;-73
2022/03/17 05:43:19;;;;;;;165.40;105.00;;;;;;;3.51;87.50;101627.55;2676628;87;21578;-73
2022/03/17 05:47:21;;;;;;;193.60;125.07;;;;;;;3.75;86.30;101629.03;2677651;89;21090;-73
2022/03/17 05:51:23;;;;;;;181.28;112.35;;;;;;;3.95;85.67;101624.91;2677140;89;21070;-72
2022/03/17 05:55:26;;;;;;;151.32;106.05;;;;;;;4.07;84.96;101626.27;2668470;88;21042;-72
2022/03/17 05:59:28;;;;;;;143.17;86.70;;;;;;;4.18;84.99;101633.81;2654456;89;21071;-69
2022/03/17 06:03:29;;;;;;;130.25;89.52;;;;;;;4.24;84.40;101630.52;2655333;88;21054;-72
2022/03/17 06:07:40;;;;;;;137.12;88.20;;;;;;;4.28;84.16;101641.80;2655010;89;21067;-72
2022/03/17 06:11:42;;;;;;;141.88;96.40;;;;;;;4.33;84.20;101645.16;2654148;89;21079;-72
2022/03/17 06:15:44;;;;;;;140.50;92.22;;;;;;;4.35;84.21;101652.55;2654927;89;21126;-72
2022/03/17 06:19:45;;;;;;;123.72;86.57;;;;;;;4.26;84.22;101656.35;2655296;88;21043;-72
2022/03/17 06:23:46;;;;;;;144.80;98.85;;;;;;;4.20;84.63;101652.58;2655117;88;21052;-72
2022/03/17 06:27:48;;;;;;;134.40;91.47;;;;;;;4.11;85.08;101662.97;2654817;89;21027;-72
2022/03/17 06:31:50;;;;;;;142.93;95.12;;;;;;;4.12;85.42;101667.31;2654945;89;21154;-72
2022/03/17 06:35:51;;;;;;;135.40;89.85;;;;;;;4.08;86.41;101678.87;2654802;88;21142;-72
2022/03/17 06:39:56;;;;;;;125.87;88.05;;;;;;;4.11;86.65;101672.18;2654811;89;21075;-72
2022/03/17 06:43:58;;;;;;;154.57;102.87;;;;;;;4.19;86.92;101678.52;2655195;89;21103;-72
2022/03/17 06:48:00;;;;;;;199.62;138.80;;;;;;;4.28;87.24;101674.28;2654684;89;21045;-72
2022/03/17 06:52:02;;;;;;;171.02;112.30;;;;;;;4.43;87.18;101679.48;2655499;89;21031;-72
2022/03/17 06:56:04;;;;;;;150.22;114.60;;;;;;;4.31;88.39;101683.84;2654973;89;21090;-72
2022/03/17 07:00:12;;;;;;;142.98;100.00;;;;;;;4.45;88.35;101680.77;2655080;89;21071;-72
2022/03/17 07:04:13;;;;;;;139.25;93.70;;;;;;;4.62;87.93;101680.17;2655244;89;21115;-72
2022/03/17 07:08:15;;;;;;;143.68;95.35;;;;;;;4.81;87.27;101686.97;2655367;88;21092;-70
2022/03/17 07:12:16;;;;;;;151.02;102.47;;;;;;;4.94;87.02;101686.55;2655375;88;21121;-72
2022/03/17 07:16:21;;;;;;;134.93;95.20;;;;;;;4.97;86.61;101683.80;2655394;88;21059;-72
2022/03/17 07:20:23;;;;;;;138.75;91.40;;;;;;;5.03;86.39;101682.72;2655652;88;21102;-71
2022/03/17 07:24:25;;;;;;;130.55;93.82;;;;;;;5.10;86.91;101689.48;2655860;89;21062;-71
2022/03/17 07:28:27;;;;;;;147.30;101.15;;;;;;;5.22;87.75;101678.49;2655672;89;21070;-72
2022/03/17 07:32:29;;;;;;;153.23;98.30;;;;;;;5.36;87.49;101679.77;2655442;89;21142;-70
2022/03/17 07:36:31;;;;;;;134.72;91.90;;;;;;;5.52;87.03;101676.95;2655496;89;21122;-70
2022/03/17 07:40:33;;;;;;;134.72;92.33;;;;;;;5.64;87.23;101671.66;2656387;89;21096;-71
2022/03/17 07:44:37;;;;;;;121.17;89.32;;;;;;;5.76;87.21;101680.87;2656207;88;21031;-71
2022/03/17 07:48:38;;;;;;;129.78;89.95;;;;;;;5.95;87.11;101695.98;2655772;89;21520;-71
2022/03/17 07:52:40;;;;;;;126.55;88.58;;;;;;;6.12;87.22;101687.41;2656470;88;21952;-71
2022/03/17 07:56:42;;;;;;;136.20;90.57;;;;;;;6.32;87.08;101681.77;2656163;89;21126;-70
2022/03/17 08:00:46;;;;;;;126.97;86.47;;;;;;;6.52;87.01;101684.91;2656396;89;21083;-70
2022/03/17 08:04:50;;;;;;;118.40;83.67;;;;;;;6.70;86.29;101690.73;2656382;89;21402;-70
2022/03/17 08:08:51;;;;;;;130.78;88.65;;;;;;;6.92;86.79;101687.15;2656807;89;21055;-71
2022/03/17 08:12:53;;;;;;;174.85;108.70;;;;;;;7.04;85.28;101693.68;2656877;89;21122;-70
2022/03/17 08:16:56;;;;;;;190.75;123.75;;;;;;;6.96;85.13;101695.34;2656895;89;21043;-70
2022/03/17 08:20:57;;;;;;;142.82;89.67;;;;;;;6.88;85.35;101700.12;2656997;88;21082;-69
2022/03/17 08:24:59;;;;;;;121.15;79.03;;;;;;;6.88;85.77;101702.77;2656512;88;21665;-71
2022/03/17 08:29:01;;;;;;;128.53;81.90;;;;;;;6.88;84.83;101709.38;2656971;89;21079;-71
2022/03/17 08:33:03;;;;;;;118.60;86.45;;;;;;;6.94;85.14;101702.48;2656999;88;21066;-68
2022/03/17 08:37:04;;;;;;;150.32;90.20;;;;;;;7.19;84.86;101702.71;2656777;88;21354;-70
2022/03/17 08:41:06;;;;;;;140.77;93.25;;;;;;;7.32;83.66;101700.36;2656765;89;21027;-70
2022/03/17 08:49:24;;;;;;;121.75;91.25;;;;;;;7.40;82.90;101713.25;2657115;89;21110;-71
2022/03/17 08:53:26;;;;;;;118.60;85.30;;;;;;;7.54;81.35;101717.45;2656599;89;21079;-71
2022/03/17 08:57:28;;;;;;;136.75;92.12;;;;;;;7.58;80.93;101713.73;2671426;87;29460;-70
2022/03/17 09:01:30;;;;;;;116.90;79.07;;;;;;;7.63;80.57;101717.95;2679591;89;21114;-70
2022/03/17 09:05:33;;;;;;;127.82;88.35;;;;;;;7.65;80.06;101724.03;2679443;89;21058;-70
2022/03/17 09:09:36;;;;;;;132.30;92.70;;;;;;;7.76;80.72;101724.40;2679855;89;21019;-69
2022/03/17 09:13:38;;;;;;;140.60;94.85;;;;;;;7.88;79.04;101723.44;2680067;88;21046;-70
2022/03/17 09:17:43;;;;;;;123.07;77.55;;;;;;;8.03;78.58;101727.98;2679827;89;21057;-69
2022/03/17 09:21:45;;;;;;;130.00;88.78;;;;;;;7.99;77.72;101729.06;2679742;89;21065;-70
2022/03/17 09:25:46;;;;;;;141.80;93.42;;;;;;;8.18;77.85;101728.17;2679639;89;21031;-68
2022/03/17 09:29:48;;;;;;;127.47;90.32;;;;;;;8.20;78.35;101726.31;2679688;89;21086;-70
2022/03/17 09:33:49;;;;;;;111.47;75.15;;;;;;;8.37;78.19;101725.02;2679880;89;21066;-70
2022/03/17 09:37:51;;;;;;;122.87;86.55;;;;;;;8.41;77.55;101726.58;2679973;89;21113;-69
2022/03/17 09:41:53;;;;;;;127.70;87.90;;;;;;;8.53;77.24;101718.98;2679910;89;22456;-70
2022/03/17 09:45:57;;;;;;;131.05;90.90;;;;;;;8.64;76.85;101729.89;2679909;89;21612;-69
2022/03/17 09:50:00;;;;;;;131.07;86.30;;;;;;;8.68;77.06;101719.54;2679714;89;21086;-70
2022/03/17 09:54:02;;;;;;;125.42;88.10;;;;;;;8.80;76.10;101719.38;2679980;88;21078;-69
2022/03/17 09:58:06;;;;;;;122.33;88.60;;;;;;;8.88;75.92;101725.62;2663087;89;21123;-69
2022/03/17 10:02:08;;;;;;;113.25;81.75;;;;;;;9.02;75.11;101724.02;2657628;89;21043;-70
2022/03/17 10:06:10;;;;;;;136.82;90.15;;;;;;;9.13;74.83;101726.98;2657374;89;21047;-70
2022/03/17 10:10:12;;;;;;;154.93;108.67;;;;;;;9.26;74.97;101724.08;2657843;89;21063;-70
2022/03/17 10:14:13;;;;;;;140.55;96.15;;;;;;;9.41;73.14;101729.48;2657814;88;21055;-69
2022/03/17 10:18:24;;;;;;;137.68;98.35;;;;;;;9.46;72.24;101724.80;2657729;89;21543;-70
2022/03/17 10:22:26;;;;;;;147.28;101.62;;;;;;;9.66;74.16;101732.15;2657969;89;21021;-70
2022/03/17 10:26:46;;;;;;;146.62;104.63;;;;;;;9.73;71.29;101730.86;2657932;88;21035;-70
2022/03/17 10:30:48;;;;;;;148.00;106.87;;;;;;;9.90;72.76;101737.88;2658235;89;21070;-69
2022/03/17 10:34:55;;;;;;;141.05;93.65;;;;;;;9.98;70.37;101729.48;2658002;89;21054;-70
2022/03/17 10:38:56;;;;;;;141.62;95.05;;;;;;;10.00;70.97;101740.88;2657484;89;21461;-69
2022/03/17 10:43:16;;;;;;;126.25;87.05;;;;;;;10.16;71.71;101744.88;2658504;89;21130;-70
2022/03/17 10:47:28;;;;;;;145.32;99.25;;;;;;;10.32;71.31;101748.84;2658183;89;21050;-69
2022/03/17 10:51:43;;;;;;;154.97;104.87;;;;;;;10.48;71.93;101747.50;2658085;89;21087;-70
2022/03/17 10:55:44;;;;;;;142.35;98.07;;;;;;;10.64;71.31;101744.83;2658240;89;21074;-70
2022/03/17 10:59:50;;;;;;;147.13;99.58;;;;;;;10.74;69.41;101738.94;2658468;89;21090;-69
2022/03/17 11:03:51;;;;;;;126.43;90.67;;;;;;;10.77;69.36;101738.75;2658861;89;21051;-69
2022/03/17 11:07:54;;;;;;;127.35;96.02;;;;;;;10.79;68.16;101740.84;2658514;88;21055;-69
2022/03/17 11:11:56;;;;;;;131.40;97.22;;;;;;;10.90;67.76;101745.52;2658537;89;21110;-69
2022/03/17 11:16:06;;;;;;;128.93;95.87;;;;;;;10.96;67.26;101747.35;2658513;89;21054;-69
2022/03/17 11:20:11;;;;;;;119.20;87.33;;;;;;;11.05;68.41;101744.61;2658515;89;21059;-70
2022/03/17 11:24:22;;;;;;;123.18;93.70;;;;;;;11.06;67.11;101744.14;2658558;89;21141;-69
2022/03/17 11:28:39;;;;;;;132.20;95.05;;;;;;;11.06;66.79;101754.80;2658331;89;21134;-70
2022/03/17 11:32:55;;;;;;;126.25;93.67;;;;;;;11.10;67.74;101754.98;2658378;89;21091;-69
2022/03/17 11:37:25;;;;;;;132.67;90.00;;;;;;;11.16;66.92;101740.45;2658389;89;21071;-69
2022/03/17 11:41:31;;;;;;;111.70;82.15;;;;;;;11.10;66.05;101744.34;2658590;88;21059;-70
2022/03/17 11:45:37;;;;;;;126.82;89.03;;;;;;;11.06;66.04;101748.98;2657953;88;21035;-69
2022/03/17 11:49:46;;;;;;;126.92;93.17;;;;;;;11.10;65.30;101739.88;2658571;89;21016;-69
2022/03/17 11:54:04;;;;;;;114.00;87.17;;;;;;;11.07;65.78;101740.53;2658570;89;21067;-69
2022/03/17 11:58:37;;;;;;;135.43;94.10;;;;;;;11.04;64.77;101730.91;2658451;89;21056;-70
2022/03/17 12:02:41;;;;;;;125.47;91.28;;;;;;;11.08;65.71;101726.27;2658552;89;21090;-70
2022/03/17 12:06:53;;;;;;;117.35;83.72;;;;;;;11.18;64.59;101727.40;2658542;89;21087;-69
2022/03/17 12:11:11;;;;;;;116.22;80.65;;;;;;;11.29;64.38;101716.08;2658234;88;21060;-69
2022/03/17 12:15:16;;;;;;;112.83;77.10;;;;;;;11.30;64.93;101712.50;2658548;89;21052;-69
2022/03/17 12:19:50;;;;;;;106.05;80.07;;;;;;;11.37;63.27;101708.48;2626228;89;21154;-70
2022/03/17 12:23:54;;;;;;;114.72;79.47;;;;;;;11.50;63.63;101707.23;2658526;89;21039;-70
2022/03/17 12:28:00;;;;;;;114.10;76.55;;;;;;;11.60;63.69;101701.33;2659058;89;21103;-70
2022/03/17 12:32:10;;;;;;;105.90;76.95;;;;;;;11.56;62.14;101693.51;2658972;89;21083;-70
2022/03/17 12:36:14;;;;;;;97.55;70.45;;;;;;;11.60;62.56;101694.67;2658910;89;21019;-69
2022/03/17 12:40:18;;;;;;;98.90;75.00;;;;;;;11.53;61.08;101690.20;2658838;88;21070;-69
2022/03/17 12:44:24;;;;;;;105.35;73.42;;;;;;;11.60;60.80;101698.17;2658821;89;21098;-69
2022/03/17 12:48:31;;;;;;;103.12;75.17;;;;;;;11.62;60.60;101711.41;2658637;89;21071;-69
2022/03/17 12:52:33;;;;;;;94.85;73.42;;;;;;;11.68;61.49;101713.68;2658732;89;21039;-69
2022/03/17 12:56:51;;;;;;;102.95;71.85;;;;;;;11.70;61.09;101714.44;2661372;87;21121;-68
2022/03/17 13:00:53;;;;;;;91.08;68.85;;;;;;;11.76;61.42;101714.52;2680551;88;21058;-69
2022/03/17 13:04:56;;;;;;;101.12;72.78;;;;;;;11.76;59.65;101708.70;2680887;89;21037;-69
2022/03/17 13:08:58;;;;;;;94.37;69.67;;;;;;;11.76;60.17;101710.53;2680947;89;21073;-69
2022/03/17 13:17:31;;;;;;;88.80;69.67;;;;;;;11.74;60.39;101713.77;2681179;89;21082;-69
2022/03/17 13:21:33;;;;;;;87.37;65.00;;;;;;;11.79;59.79;101712.53;2681020;89;21118;-69
2022/03/17 13:25:38;;;;;;;94.95;71.12;;;;;;;11.77;59.48;101713.08;2657400;89;21058;-69
2022/03/17 13:29:46;;;;;;;102.63;73.20;;;;;;;11.69;59.35;101704.73;2681345;89;21085;-69
2022/03/17 13:33:53;;;;;;;99.72;73.28;;;;;;;11.72;59.32;101703.20;2655471;89;21038;-70
2022/03/17 13:38:08;;;;;;;92.22;68.42;;;;;;;11.75;59.99;101708.81;2681019;89;21054;-69
2022/03/17 13:42:13;;;;;;;91.55;63.50;;;;;;;11.70;58.61;101706.44;2680699;89;21133;-70
2022/03/17 13:46:21;;;;;;;89.35;64.12;;;;;;;11.71;58.35;101701.02;2680825;89;21062;-70
2022/03/17 13:50:24;;;;;;;87.25;62.90;;;;;;;11.66;59.53;101706.27;2680536;89;21046;-69
2022/03/17 13:54:25;;;;;;;89.28;66.42;;;;;;;11.67;57.70;101713.30;2681217;89;21042;-69
2022/03/17 13:58:36;;;;;;;85.95;60.88;;;;;;;11.78;58.23;101705.45;2669417;89;21094;-69
2022/03/17 14:02:38;;;;;;;79.97;59.98;;;;;;;11.74;58.65;101707.11;2658974;89;21098;-69
2022/03/17 14:06:40;;;;;;;85.15;56.42;;;;;;;11.77;56.62;101707.74;2658882;89;21062;-69
2022/03/17 14:10:42;;;;;;;84.92;61.18;;;;;;;11.70;57.89;101710.44;2658790;89;21050;-69
2022/03/17 14:14:45;;;;;;;94.03;68.22;;;;;;;11.79;58.48;101716.53;2657986;89;21062;-69
2022/03/17 14:18:49;;;;;;;92.20;64.47;;;;;;;11.84;58.43;101714.41;2657515;89;21055;-69
2022/03/17 14:27:06;;;;;;;111.52;77.55;;;;;;;11.74;58.48;101729.27;2656756;89;21111;-69
2022/03/17 14:31:11;;;;;;;90.42;60.23;;;;;;;11.70;57.63;101727.77;2633005;89;21100;-66
2022/03/17 14:35:12;;;;;;;87.57;62.27;;;;;;;11.77;57.56;101725.56;2658018;89;21138;-68
2022/03/17 14:39:15;;;;;;;80.57;60.98;;;;;;;11.78;56.85;101730.78;2656917;89;21122;-73
2022/03/17 14:43:17;;;;;;;83.27;59.42;;;;;;;11.70;56.86;101729.09;2655178;89;21102;-73
2022/03/17 14:47:18;;;;;;;79.97;57.70;;;;;;;11.76;56.50;101731.36;2655165;89;21743;-73
2022/03/17 14:51:20;;;;;;;76.30;54.00;;;;;;;11.78;57.48;101725.45;2656138;89;21118;-68
2022/03/17 14:55:22;;;;;;;87.02;60.67;;;;;;;11.83;57.84;101726.03;2658032;89;21063;-69
2022/03/17 14:59:24;;;;;;;71.92;53.17;;;;;;;11.87;56.35;101716.00;2672998;89;21102;-67
2022/03/17 15:03:25;;;;;;;89.28;59.18;;;;;;;11.81;55.71;101719.08;2681232;89;21074;-67
2022/03/17 15:07:29;;;;;;;74.47;57.73;;;;;;;11.82;55.88;101724.78;2680930;89;21054;-67
2022/03/17 15:11:30;;;;;;;89.37;60.28;;;;;;;11.85;57.02;101719.25;2680362;89;21093;-68
2022/03/17 15:15:32;;;;;;;83.87;62.58;;;;;;;11.85;57.64;101710.79;2680322;89;21645;-68
2022/03/17 15:19:34;;;;;;;98.10;67.72;;;;;;;11.80;57.96;101708.91;2680371;89;20999;-68
2022/03/17 15:23:35;;;;;;;105.12;72.08;;;;;;;11.76;57.71;101716.70;2680493;89;21054;-68
2022/03/17 15:31:53;;;;;;;86.30;58.03;;;;;;;11.63;58.02;101721.13;2680897;89;21102;-67
2022/03/17 15:35:54;;;;;;;78.75;59.85;;;;;;;11.57;57.92;101719.20;2680338;89;21026;-67
2022/03/17 15:39:56;;;;;;;80.10;56.88;;;;;;;11.53;58.55;101716.36;2680163;89;21085;-67
2022/03/17 15:43:58;;;;;;;82.22;55.15;;;;;;;11.53;58.92;101716.36;2680502;89;21055;-67
2022/03/17 15:48:02;;;;;;;75.70;55.75;;;;;;;11.46;59.54;101710.17;2680195;89;21062;-68
2022/03/17 15:52:07;;;;;;;88.97;59.83;;;;;;;11.37;59.94;101708.94;2680530;89;21047;-68
2022/03/17 15:56:11;;;;;;;76.17;57.10;;;;;;;11.35;60.35;101709.52;2680337;89;21082;-67
2022/03/17 16:00:18;;;;;;;86.00;60.40;;;;;;;11.24;61.54;101707.06;2662298;88;21020;-68
2022/03/17 16:04:22;;;;;;;87.80;63.08;;;;;;;11.16;61.86;101702.67;2657503;89;21182;-67
2022/03/17 16:08:26;;;;;;;76.72;57.83;;;;;;;11.05;61.47;101710.48;2658039;89;21098;-68
2022/03/17 16:16:45;;;;;;;88.75;58.68;;;;;;;10.81;61.42;101724.34;2657841;89;21071;-67
2022/03/17 16:20:48;;;;;;;92.78;58.28;;;;;;;10.66;61.75;101736.27;2657884;89;21075;-68
2022/03/17 16:24:51;;;;;;;87.00;58.83;;;;;;;10.69;61.54;101726.77;2658386;89;21023;-67
2022/03/17 16:28:55;;;;;;;87.37;59.95;;;;;;;10.53;61.96;101734.81;2658258;89;21102;-68
2022/03/17 16:33:00;;;;;;;84.13;56.92;;;;;;;10.42;62.46;101743.42;2657400;89;21035;-68
2022/03/17 16:37:08;;;;;;;71.60;55.12;;;;;;;10.22;63.64;101743.65;2657724;89;21138;-67
2022/03/17 16:41:10;;;;;;;76.42;55.17;;;;;;;10.02;64.67;101744.31;2657054;89;21633;-69
2022/03/17 16:45:13;;;;;;;84.45;56.18;;;;;;;9.81;65.48;101743.72;2657100;89;21405;-68
2022/03/17 16:49:15;;;;;;;73.20;54.98;;;;;;;9.70;65.99;101744.32;2658034;89;21035;-69
2022/03/17 16:53:17;;;;;;;82.12;54.35;;;;;;;9.54;66.85;101746.97;2653584;89;21027;-68
2022/03/17 16:57:21;;;;;;;75.57;54.60;;;;;;;9.43;66.59;101754.16;2657820;88;22074;-68
2022/03/17 17:01:25;;;;;;;70.00;45.50;;;;;;;9.38;66.23;101750.89;2680135;89;21098;-68
2022/03/17 17:05:28;;;;;;;70.72;47.73;;;;;;;9.36;64.92;101754.98;2680078;89;21162;-68
2022/03/17 17:09:32;;;;;;;70.92;46.05;;;;;;;9.41;63.76;101746.74;2656329;89;21082;-69
2022/03/17 17:13:37;;;;;;;70.80;45.95;;;;;;;9.43;63.70;101754.16;2680034;89;21081;-69
2022/03/17 17:17:41;;;;;;;70.37;45.10;;;;;;;9.41;63.80;101760.89;2680206;89;21058;-68
2022/03/17 17:21:45;;;;;;;85.57;52.27;;;;;;;9.35;63.94;101759.03;2679887;87;21089;-69
2022/03/17 17:34:31;;;;;;;57.03;42.40;;;;;;;9.17;63.93;101775.47;2679914;89;21087;-69
2022/03/17 17:38:33;;;;;;;63.80;43.80;;;;;;;9.08;63.76;101782.96;2679804;88;21101;-69
2022/03/17 17:42:41;;;;;;;48.48;32.88;;;;;;;9.05;63.81;101788.92;2679842;89;21661;-69
2022/03/17 17:46:46;;;;;;;49.08;32.13;;;;;;;8.96;63.84;101791.09;2679647;89;21105;-69
2022/03/17 17:50:51;;;;;;;45.23;34.43;;;;;;;8.87;63.57;101802.19;2679685;89;21094;-68
2022/03/17 17:54:54;;;;;;;64.87;42.78;;;;;;;8.88;63.82;101804.35;2679885;89;21122;-68
2022/03/17 17:58:58;;;;;;;64.60;39.42;;;;;;;8.81;64.12;101805.12;2671834;88;21087;-68
2022/03/17 18:03:00;;;;;;;76.57;45.65;;;;;;;8.77;63.66;101811.53;2657584;89;21459;-69
2022/03/17 18:07:04;;;;;;;75.40;42.55;;;;;;;8.74;63.62;101813.02;2657199;89;21114;-68
2022/03/17 18:11:06;;;;;;;76.60;45.45;;;;;;;8.64;63.58;101813.94;2657121;89;21047;-68
2022/03/17 18:15:10;;;;;;;70.78;41.05;;;;;;;8.62;63.86;101819.78;2657323;89;21074;-68
2022/03/17 18:19:14;;;;;;;59.30;38.65;;;;;;;8.50;64.35;101817.27;2657266;89;21134;-68
2022/03/17 18:23:18;;;;;;;50.55;33.28;;;;;;;8.42;64.62;101839.66;2656977;89;21074;-68
2022/03/17 18:27:23;;;;;;;62.58;36.77;;;;;;;8.23;65.09;101832.19;2657236;89;21093;-69
2022/03/17 18:31:28;;;;;;;46.42;29.32;;;;;;;8.18;64.97;101835.53;2657247;89;21603;-69
2022/03/17 18:35:33;;;;;;;46.53;31.70;;;;;;;8.02;65.25;101843.34;2656921;89;21075;-68
2022/03/17 18:39:36;;;;;;;51.00;33.63;;;;;;;7.97;65.91;101846.20;2657500;89;21085;-68
2022/03/17 18:43:38;;;;;;;49.48;34.53;;;;;;;7.92;65.32;101848.21;2657731;89;21474;-69
2022/03/17 18:47:43;;;;;;;48.85;30.70;;;;;;;7.95;64.97;101854.69;2657804;89;20988;-70
2022/03/17 18:51:48;;;;;;;42.63;27.33;;;;;;;7.92;64.82;101857.00;2657379;89;21103;-70
2022/03/17 18:55:52;;;;;;;48.65;31.42;;;;;;;7.92;64.86;101872.91;2657982;89;21066;-69